createdAt,value
2018-07-25T00:02:22.777Z,20.80
2018-07-25T00:04:55.277Z,20.90
2018-07-25T00:07:29.490Z,21.00
2018-07-25T00:10:02.847Z,20.90
2018-07-25T00:12:35.356Z,20.90
2018-07-25T00:15:08.027Z,21.10
2018-07-25T00:17:40.657Z,21.10
2018-07-25T00:20:14.459Z,20.80
2018-07-25T00:22:48.183Z,20.80
2018-07-25T00:25:20.871Z,21.00
2018-07-25T00:27:54.264Z,21.10
2018-07-25T00:30:29.038Z,21.10
2018-07-25T00:36:10.706Z,21.40
2018-07-25T00:38:40.735Z,21.30
2018-07-25T00:43:46.181Z,21.30
2018-07-25T00:49:13.576Z,21.00
2018-07-25T00:51:44.818Z,21.20
2018-07-25T00:54:14.776Z,21.30
2018-07-25T00:56:46.152Z,21.30
2018-07-25T00:59:17.397Z,21.20
2018-07-25T01:01:49.233Z,21.00
2018-07-25T01:04:20.900Z,20.90
2018-07-25T01:06:52.351Z,21.10
2018-07-25T01:09:23.544Z,20.90
2018-07-25T01:11:55.093Z,21.30
2018-07-25T01:14:26.023Z,20.80
2018-07-25T01:16:57.058Z,20.70
2018-07-25T01:19:27.867Z,20.50
2018-07-25T01:21:58.359Z,20.20
2018-07-25T01:24:29.444Z,20.20
2018-07-25T01:27:00.124Z,20.30
2018-07-25T01:29:31.558Z,20.30
2018-07-25T01:32:14.667Z,19.90
2018-07-25T01:37:36.703Z,20.30
2018-07-25T01:40:21.393Z,20.40
2018-07-25T01:43:03.479Z,20.40
2018-07-25T01:45:40.699Z,20.50
2018-07-25T01:48:51.691Z,20.40
2018-07-25T01:51:36.554Z,20.10
2018-07-25T01:54:12.645Z,19.80
2018-07-25T01:56:50.991Z,19.90
2018-07-25T01:59:32.696Z,20.00
2018-07-25T02:05:02.075Z,20.50
2018-07-25T02:07:46.171Z,20.30
2018-07-25T02:10:24.179Z,20.40
2018-07-25T02:13:06.696Z,20.40
2018-07-25T02:15:46.447Z,20.50
2018-07-25T02:18:29.649Z,20.30
2018-07-25T02:21:15.664Z,20.60
2018-07-25T02:23:57.633Z,20.30
2018-07-25T02:26:35.492Z,20.40
2018-07-25T02:29:12.192Z,20.50
2018-07-25T02:31:50.305Z,20.40
2018-07-25T02:34:30.010Z,20.50
2018-07-25T02:37:13.977Z,20.30
2018-07-25T02:42:32.107Z,20.00
2018-07-25T02:45:09.958Z,20.20
2018-07-25T02:47:48.509Z,20.10
2018-07-25T02:50:30.113Z,20.40
2018-07-25T02:53:12.322Z,20.30
2018-07-25T02:55:47.040Z,20.40
2018-07-25T03:01:15.011Z,20.30
2018-07-25T03:03:57.612Z,20.00
2018-07-25T03:06:35.129Z,20.20
2018-07-25T03:09:18.529Z,20.00
2018-07-25T03:11:57.349Z,20.10
2018-07-25T03:14:37.913Z,20.40
2018-07-25T03:17:19.027Z,20.50
2018-07-25T03:22:29.808Z,20.20
2018-07-25T03:25:16.431Z,20.00
2018-07-25T03:33:22.715Z,20.50
2018-07-25T03:36:06.369Z,20.60
2018-07-25T03:41:29.465Z,20.70
2018-07-25T03:44:12.812Z,20.70
2018-07-25T03:46:52.993Z,20.50
2018-07-25T03:49:39.739Z,20.10
2018-07-25T03:52:18.630Z,20.00
2018-07-25T03:54:53.920Z,19.90
2018-07-25T03:57:28.128Z,19.80
2018-07-25T04:00:07.919Z,20.00
2018-07-25T04:02:50.665Z,20.20
2018-07-25T04:05:30.254Z,20.40
2018-07-25T04:08:17.031Z,20.40
2018-07-25T04:11:04.781Z,20.50
2018-07-25T04:13:52.998Z,20.40
2018-07-25T04:19:41.778Z,20.60
2018-07-25T04:22:41.874Z,20.50
2018-07-25T04:25:33.889Z,20.40
2018-07-25T04:28:24.047Z,20.20
2018-07-25T04:31:22.836Z,20.00
2018-07-25T04:34:15.834Z,19.90
2018-07-25T04:40:15.604Z,20.30
2018-07-25T04:46:08.038Z,20.60
2018-07-25T04:49:11.593Z,20.20
2018-07-25T04:52:16.168Z,20.10
2018-07-25T04:55:02.796Z,20.20
2018-07-25T05:00:54.937Z,20.20
2018-07-25T05:06:40.852Z,20.60
2018-07-25T05:09:32.810Z,20.70
2018-07-25T05:12:26.700Z,20.80
2018-07-25T05:15:18.506Z,20.70
2018-07-25T05:18:11.072Z,21.30
2018-07-25T05:23:59.847Z,21.80
2018-07-25T05:33:00.296Z,22.60
2018-07-25T05:35:51.966Z,22.90
2018-07-25T05:41:34.983Z,22.40
2018-07-25T05:44:25.180Z,22.10
2018-07-25T05:47:24.885Z,22.30
2018-07-25T05:56:08.421Z,22.70
2018-07-25T06:02:02.381Z,23.50
2018-07-25T06:07:59.133Z,23.60
2018-07-25T06:16:41.288Z,24.20
2018-07-25T06:19:35.994Z,24.00
2018-07-25T06:39:54.534Z,24.20
2018-07-25T06:48:42.017Z,24.10
2018-07-25T06:57:25.288Z,24.50
2018-07-25T07:00:23.829Z,24.80
2018-07-25T07:03:14.392Z,25.60
2018-07-25T07:26:41.470Z,26.80
2018-07-25T07:29:32.804Z,27.20
2018-07-25T07:32:24.015Z,27.20
2018-07-25T07:35:18.583Z,27.50
2018-07-25T07:38:09.743Z,27.00
2018-07-25T07:49:57.025Z,27.00
2018-07-25T07:52:50.102Z,27.20
2018-07-25T07:58:47.132Z,27.60
2018-07-25T08:07:40.849Z,27.90
2018-07-25T08:16:33.792Z,28.20
2018-07-25T08:22:23.157Z,28.40
2018-07-25T08:25:14.544Z,28.80
2018-07-25T08:36:54.966Z,29.00
2018-07-25T08:39:53.509Z,29.30
2018-07-25T08:48:47.026Z,29.30
2018-07-25T08:54:35.469Z,30.00
2018-07-25T09:03:17.826Z,30.10
2018-07-25T09:12:07.416Z,29.70
2018-07-25T09:20:55.833Z,29.90
2018-07-25T09:23:50.222Z,30.20
2018-07-25T09:35:42.048Z,30.40
2018-07-25T09:38:42.529Z,30.60
2018-07-25T09:41:39.994Z,30.40
2018-07-25T09:50:25.854Z,29.20
2018-07-25T09:59:17.852Z,29.40
2018-07-25T10:05:18.562Z,29.10
2018-07-25T10:08:15.884Z,29.10
2018-07-25T10:17:10.726Z,29.20
2018-07-25T10:28:49.917Z,30.30
2018-07-25T10:37:35.609Z,31.30
2018-07-25T10:40:28.125Z,30.70
2018-07-25T10:46:19.408Z,30.80
2018-07-25T10:49:13.980Z,31.10
2018-07-25T10:54:58.345Z,30.80
2018-07-25T10:57:46.396Z,30.90
2018-07-25T11:06:24.330Z,31.20
2018-07-25T11:09:19.070Z,31.20
2018-07-25T11:12:09.000Z,31.00
2018-07-25T11:23:51.275Z,30.70
2018-07-25T11:26:44.303Z,30.10
2018-07-25T11:32:36.233Z,31.00
2018-07-25T11:35:33.834Z,31.40
2018-07-25T11:38:17.905Z,32.00
2018-07-25T11:41:16.606Z,31.80
2018-07-25T11:43:57.757Z,32.10
2018-07-25T11:46:43.781Z,31.80
2018-07-25T11:51:53.517Z,32.00
2018-07-25T11:54:30.077Z,31.50
2018-07-25T11:59:51.930Z,30.80
2018-07-25T12:05:11.802Z,30.50
2018-07-25T12:07:44.694Z,30.80
2018-07-25T12:10:24.814Z,31.20
2018-07-25T12:12:58.174Z,31.80
2018-07-25T12:18:18.031Z,32.60
2018-07-25T12:20:55.376Z,32.70
2018-07-25T12:23:36.701Z,32.90
2018-07-25T12:28:51.801Z,32.00
2018-07-25T12:31:31.799Z,31.80
2018-07-25T12:34:16.042Z,31.40
2018-07-25T12:36:59.358Z,31.10
2018-07-25T12:39:35.342Z,31.40
2018-07-25T12:42:12.633Z,31.30
2018-07-25T12:44:51.039Z,31.20
2018-07-25T12:50:18.477Z,31.40
2018-07-25T12:52:58.409Z,31.90
2018-07-25T12:55:43.089Z,32.00
2018-07-25T12:58:26.944Z,31.80
2018-07-25T13:01:04.340Z,31.50
2018-07-25T13:03:50.925Z,30.80
2018-07-25T13:06:29.672Z,31.20
2018-07-25T13:09:07.974Z,31.30
2018-07-25T13:11:44.863Z,31.10
2018-07-25T13:14:33.306Z,31.30
2018-07-25T13:17:14.429Z,31.30
2018-07-25T13:22:36.902Z,31.60
2018-07-25T13:25:29.256Z,31.60
2018-07-25T13:30:50.299Z,31.10
2018-07-25T13:36:11.613Z,31.10
2018-07-25T13:38:52.423Z,31.30
2018-07-25T13:41:39.404Z,31.30
2018-07-25T13:44:22.747Z,31.40
2018-07-25T13:47:10.527Z,31.20
2018-07-25T13:49:47.922Z,30.80
2018-07-25T13:52:31.844Z,31.00
2018-07-25T13:55:08.234Z,31.70
2018-07-25T14:00:35.631Z,32.20
2018-07-25T14:03:23.830Z,32.00
2018-07-25T14:06:09.902Z,31.40
2018-07-25T14:08:53.319Z,31.10
2018-07-25T14:11:33.632Z,30.50
2018-07-25T14:14:29.061Z,30.60
2018-07-25T14:17:10.619Z,30.10
2018-07-25T14:19:48.858Z,30.30
2018-07-25T14:22:38.523Z,30.70
2018-07-25T14:25:19.123Z,30.20
2018-07-25T14:27:58.151Z,30.60
2018-07-25T14:30:37.219Z,30.50
2018-07-25T14:36:00.257Z,30.70
2018-07-25T14:38:38.432Z,30.30
2018-07-25T14:41:20.246Z,30.00
2018-07-25T14:43:58.809Z,29.60
2018-07-25T14:46:40.878Z,29.30
2018-07-25T14:49:19.182Z,29.60
2018-07-25T14:54:38.708Z,29.90
2018-07-25T14:57:14.106Z,30.30
2018-07-25T14:59:53.998Z,30.50
2018-07-25T15:02:33.487Z,30.20
2018-07-25T15:07:54.861Z,29.50
2018-07-25T15:10:41.112Z,30.00
2018-07-25T15:13:14.694Z,30.70
2018-07-25T15:15:49.850Z,31.20
2018-07-25T15:18:25.356Z,31.60
2018-07-25T15:21:04.372Z,31.20
2018-07-25T15:23:57.628Z,31.50
2018-07-25T15:29:30.842Z,30.60
2018-07-25T15:32:14.637Z,30.90
2018-07-25T15:34:55.102Z,30.90
2018-07-25T15:37:29.868Z,31.30
2018-07-25T15:42:53.037Z,31.40
2018-07-25T15:51:17.090Z,31.40
2018-07-25T15:53:59.380Z,31.40
2018-07-25T15:56:37.000Z,30.40
2018-07-25T15:59:23.276Z,30.30
2018-07-25T16:02:03.361Z,30.50
2018-07-25T16:04:38.845Z,30.00
2018-07-25T16:07:23.055Z,29.90
2018-07-25T16:10:12.339Z,29.90
2018-07-25T16:12:51.623Z,30.00
2018-07-25T16:15:41.700Z,30.30
2018-07-25T16:18:16.393Z,30.00
2018-07-25T16:20:58.318Z,30.10
2018-07-25T16:23:32.923Z,30.40
2018-07-25T16:26:11.757Z,30.60
2018-07-25T16:28:50.065Z,30.60
2018-07-25T16:31:28.361Z,30.60
2018-07-25T16:34:03.638Z,30.10
2018-07-25T16:36:41.165Z,30.20
2018-07-25T16:39:18.173Z,30.30
2018-07-25T16:41:51.473Z,30.30
2018-07-25T16:44:27.733Z,30.70
2018-07-25T16:49:59.473Z,30.60
2018-07-25T16:52:36.517Z,30.40
2018-07-25T16:55:15.581Z,29.90
2018-07-25T16:58:08.403Z,30.00
2018-07-25T17:00:48.278Z,30.20
2018-07-25T17:03:37.275Z,30.30
2018-07-25T17:09:09.722Z,30.30
2018-07-25T17:12:04.075Z,30.10
2018-07-25T17:14:46.113Z,29.90
2018-07-25T17:17:30.574Z,29.90
2018-07-25T17:20:16.608Z,29.80
2018-07-25T17:22:54.948Z,29.40
2018-07-25T17:34:17.309Z,29.20
2018-07-25T17:37:01.507Z,29.30
2018-07-25T17:39:47.845Z,29.00
2018-07-25T17:42:28.076Z,29.00
2018-07-25T17:45:13.910Z,29.00
2018-07-25T17:47:55.539Z,29.00
2018-07-25T17:58:47.989Z,29.00
2018-07-25T18:04:13.708Z,28.80
2018-07-25T18:06:57.535Z,28.60
2018-07-25T18:09:33.045Z,28.50
2018-07-25T18:12:06.870Z,28.00
2018-07-25T18:14:40.230Z,27.80
2018-07-25T18:17:16.565Z,27.90
2018-07-25T18:19:51.787Z,28.00
2018-07-25T18:22:24.457Z,27.90
2018-07-25T18:25:01.025Z,27.80
2018-07-25T18:27:34.586Z,27.80
2018-07-25T18:30:08.059Z,27.70
2018-07-25T18:32:40.583Z,27.60
2018-07-25T18:35:12.887Z,27.60
2018-07-25T18:37:46.122Z,27.50
2018-07-25T18:40:19.815Z,27.40
2018-07-25T18:42:52.880Z,27.20
2018-07-25T18:45:27.089Z,26.90
2018-07-25T18:48:00.061Z,27.10
2018-07-25T18:50:33.736Z,27.00
2018-07-25T18:53:10.690Z,26.70
2018-07-25T18:55:45.314Z,26.10
2018-07-25T18:58:18.319Z,26.10
2018-07-25T19:00:52.814Z,26.50
2018-07-25T19:03:30.904Z,26.50
2018-07-25T19:06:05.664Z,26.40
2018-07-25T19:08:38.698Z,26.40
2018-07-25T19:11:11.497Z,25.90
2018-07-25T19:14:47.818Z,25.60
2018-07-25T19:17:21.870Z,25.30
2018-07-25T19:19:56.858Z,25.50
2018-07-25T19:22:30.602Z,25.10
2018-07-25T19:25:03.110Z,25.30
2018-07-25T19:27:35.553Z,24.80
2018-07-25T19:30:08.451Z,24.90
2018-07-25T19:32:40.600Z,25.20
2018-07-25T19:35:12.942Z,25.30
2018-07-25T19:37:46.929Z,25.40
2018-07-25T19:40:19.276Z,25.20
2018-07-25T19:42:53.650Z,25.30
2018-07-25T19:45:26.469Z,25.40
2018-07-25T19:47:59.660Z,24.90
2018-07-25T19:50:32.740Z,24.30
2018-07-25T19:53:06.576Z,24.60
2018-07-25T19:55:39.310Z,24.80
2018-07-25T19:58:11.979Z,25.00
2018-07-25T20:00:46.802Z,25.00
2018-07-25T20:03:20.517Z,24.60
2018-07-25T20:05:53.192Z,24.50
2018-07-25T20:08:26.410Z,24.30
2018-07-25T20:11:00.761Z,24.60
2018-07-25T20:13:33.604Z,24.90
2018-07-25T20:16:06.752Z,25.10
2018-07-25T20:18:42.593Z,24.90
2018-07-25T20:21:15.052Z,25.00
2018-07-25T20:23:48.594Z,24.80
2018-07-25T20:29:09.450Z,24.30
2018-07-25T20:34:33.477Z,24.40
2018-07-25T20:37:22.729Z,24.00
2018-07-25T20:42:56.625Z,23.50
2018-07-25T20:45:36.609Z,23.80
2018-07-25T20:48:15.068Z,24.20
2018-07-25T20:50:51.012Z,24.50
2018-07-25T20:53:31.950Z,24.70
2018-07-25T20:56:07.129Z,24.70
2018-07-25T20:58:48.524Z,24.40
2018-07-25T21:01:27.725Z,24.40
2018-07-25T21:04:11.333Z,24.30
2018-07-25T21:09:51.644Z,24.40
2018-07-25T21:12:47.854Z,24.30
2018-07-25T21:15:34.885Z,22.90
2018-07-25T21:18:14.014Z,22.50
2018-07-25T21:20:52.149Z,21.90
2018-07-25T21:23:31.722Z,21.50
2018-07-25T21:26:15.406Z,21.70
2018-07-25T21:29:04.301Z,21.80
2018-07-25T21:34:30.575Z,21.80
2018-07-25T21:37:12.259Z,22.10
2018-07-25T21:39:47.622Z,22.50
2018-07-25T21:42:29.696Z,22.60
2018-07-25T21:50:45.413Z,22.70
2018-07-25T21:53:37.086Z,22.40
2018-07-25T21:56:19.962Z,22.30
2018-07-25T21:59:04.223Z,22.20
2018-07-25T22:04:33.124Z,21.80
2018-07-25T22:07:22.226Z,21.90
2018-07-25T22:13:04.392Z,21.40
2018-07-25T22:15:43.970Z,21.30
2018-07-25T22:18:29.216Z,21.40
2018-07-25T22:21:09.092Z,21.70
2018-07-25T22:26:26.744Z,21.60
2018-07-25T22:29:12.242Z,21.10
2018-07-25T22:43:52.752Z,21.00
2018-07-25T22:46:27.910Z,21.40
2018-07-25T22:49:09.087Z,21.50
2018-07-25T22:51:44.652Z,21.50
2018-07-25T22:54:18.912Z,21.50
2018-07-25T22:57:04.252Z,20.80
2018-07-25T23:02:24.243Z,20.40
2018-07-25T23:05:00.803Z,20.40
2018-07-25T23:07:43.719Z,20.30
2018-07-25T23:10:26.222Z,20.30
2018-07-25T23:15:55.928Z,20.30
2018-07-25T23:18:32.292Z,20.50
2018-07-25T23:21:19.344Z,20.60
2018-07-25T23:23:55.802Z,20.90
2018-07-25T23:26:42.305Z,21.10
2018-07-25T23:29:21.903Z,20.90
2018-07-25T23:31:59.729Z,20.90
2018-07-25T23:34:46.553Z,21.00
2018-07-25T23:49:10.520Z,20.90
2018-07-25T23:51:50.992Z,20.80
2018-07-25T23:54:26.128Z,21.10
2018-07-25T23:57:01.281Z,21.40
2018-07-25T23:59:40.062Z,21.60
